Huvudsida
METAR-TAF:

METAR-TAF

Flygplatser :

Payerne, Schweiz

latitud: 46-49N, longitud: 006-57E, höjd: 490 m

Aktuellt väderrapport

Denna rapport gjordes för 22 minuter sedan, klockan 23:50 UTC
Vind 1 kt varierande vindriktning
Temperatur 14°C
Fuktighet 82%
Tryck 1014 hPa
Sikt 10 km eller mer
Få moln på en höjd av 6200 ft

METAR: LSMP 262350Z AUTO VRB01KT 9999NDV FEW062 14/11 Q1014 RMK

Tid: 02:12 (00:12 UTC)


TAF: saknas

Aktuella väderrapporter och prognoser från 4000 flygplatser (METAR- och TAF-rapporter).

De tillgängliga stationerna syns som gula och röda prickar på kartan.

För musen över prickarna för att se namnen på stationerna.

Klicka sedan för att få väderrapporter och prognoser.

För att ändra kartan: Klicka på de gröna knapparna med ett svart kors på för att zooma in; den gröna knappen med ett streck på för att zooma ut; eller på de gröna pilarna för angränsande kartor.


METAR-TAF: